sensor_id;sensor_type;location;lat;lon;timestamp;P1;durP1;ratioP1;P2;durP2;ratioP2
69714;SDS011;56981;53.532;49.398;2022-10-23T00:01:36;2.65;;;1.13;;
69714;SDS011;56981;53.532;49.398;2022-10-23T00:04:06;7.13;;;1.48;;
69714;SDS011;56981;53.532;49.398;2022-10-23T00:06:35;1.60;;;0.73;;
69714;SDS011;56981;53.532;49.398;2022-10-23T00:09:03;3.67;;;0.98;;
69714;SDS011;56981;53.532;49.398;2022-10-23T00:11:31;3.08;;;0.90;;
69714;SDS011;56981;53.532;49.398;2022-10-23T00:13:59;1.60;;;1.05;;
69714;SDS011;56981;53.532;49.398;2022-10-23T00:16:27;1.40;;;1.05;;
69714;SDS011;56981;53.532;49.398;2022-10-23T00:18:54;1.45;;;0.80;;
69714;SDS011;56981;53.532;49.398;2022-10-23T00:21:22;2.15;;;1.55;;
69714;SDS011;56981;53.532;49.398;2022-10-23T00:23:49;2.97;;;1.20;;
69714;SDS011;56981;53.532;49.398;2022-10-23T00:26:16;2.28;;;1.02;;
69714;SDS011;56981;53.532;49.398;2022-10-23T00:28:43;3.08;;;0.85;;
69714;SDS011;56981;53.532;49.398;2022-10-23T00:31:10;3.47;;;1.05;;
69714;SDS011;56981;53.532;49.398;2022-10-23T00:33:37;2.45;;;1.20;;
69714;SDS011;56981;53.532;49.398;2022-10-23T00:36:08;3.20;;;1.20;;
69714;SDS011;56981;53.532;49.398;2022-10-23T00:38:36;2.97;;;1.33;;
69714;SDS011;56981;53.532;49.398;2022-10-23T00:41:03;3.58;;;1.40;;
69714;SDS011;56981;53.532;49.398;2022-10-23T00:43:30;3.35;;;1.30;;
69714;SDS011;56981;53.532;49.398;2022-10-23T00:45:57;2.05;;;1.13;;
69714;SDS011;56981;53.532;49.398;2022-10-23T00:48:27;2.22;;;1.10;;
69714;SDS011;56981;53.532;49.398;2022-10-23T00:50:54;1.25;;;0.90;;
69714;SDS011;56981;53.532;49.398;2022-10-23T00:53:20;3.80;;;1.20;;
69714;SDS011;56981;53.532;49.398;2022-10-23T00:55:48;1.92;;;1.20;;
69714;SDS011;56981;53.532;49.398;2022-10-23T00:58:18;2.92;;;1.20;;
69714;SDS011;56981;53.532;49.398;2022-10-23T01:00:47;1.48;;;0.75;;
69714;SDS011;56981;53.532;49.398;2022-10-23T01:03:15;1.50;;;0.98;;
69714;SDS011;56981;53.532;49.398;2022-10-23T01:05:48;5.97;;;1.35;;
69714;SDS011;56981;53.532;49.398;2022-10-23T01:08:31;1.80;;;0.75;;
69714;SDS011;56981;53.532;49.398;2022-10-23T01:16:32;2.45;;;1.20;;
69714;SDS011;56981;53.532;49.398;2022-10-23T01:19:26;2.75;;;1.02;;
69714;SDS011;56981;53.532;49.398;2022-10-23T01:27:26;1.45;;;0.98;;
69714;SDS011;56981;53.532;49.398;2022-10-23T01:32:37;3.35;;;1.45;;
69714;SDS011;56981;53.532;49.398;2022-10-23T01:35:18;2.00;;;1.15;;
69714;SDS011;56981;53.532;49.398;2022-10-23T01:37:51;5.13;;;1.15;;
69714;SDS011;56981;53.532;49.398;2022-10-23T01:40:26;2.00;;;1.30;;
69714;SDS011;56981;53.532;49.398;2022-10-23T01:43:03;2.50;;;1.35;;
69714;SDS011;56981;53.532;49.398;2022-10-23T01:45:42;4.38;;;1.40;;
69714;SDS011;56981;53.532;49.398;2022-10-23T01:48:21;2.22;;;0.90;;
69714;SDS011;56981;53.532;49.398;2022-10-23T01:50:54;2.40;;;1.45;;
69714;SDS011;56981;53.532;49.398;2022-10-23T01:53:23;2.85;;;1.20;;
69714;SDS011;56981;53.532;49.398;2022-10-23T01:55:52;4.72;;;1.17;;
69714;SDS011;56981;53.532;49.398;2022-10-23T01:58:20;1.92;;;1.20;;
69714;SDS011;56981;53.532;49.398;2022-10-23T02:00:47;3.53;;;1.20;;
69714;SDS011;56981;53.532;49.398;2022-10-23T02:03:17;1.60;;;1.10;;
69714;SDS011;56981;53.532;49.398;2022-10-23T02:05:45;3.30;;;1.20;;
69714;SDS011;56981;53.532;49.398;2022-10-23T02:08:11;1.92;;;1.10;;
69714;SDS011;56981;53.532;49.398;2022-10-23T02:10:43;3.17;;;1.30;;
69714;SDS011;56981;53.532;49.398;2022-10-23T02:13:15;2.45;;;1.27;;
69714;SDS011;56981;53.532;49.398;2022-10-23T02:15:50;3.90;;;1.70;;
69714;SDS011;56981;53.532;49.398;2022-10-23T02:18:26;2.92;;;1.42;;
69714;SDS011;56981;53.532;49.398;2022-10-23T02:21:17;2.17;;;1.55;;
69714;SDS011;56981;53.532;49.398;2022-10-23T02:24:02;3.75;;;1.50;;
69714;SDS011;56981;53.532;49.398;2022-10-23T02:26:40;3.35;;;1.40;;
69714;SDS011;56981;53.532;49.398;2022-10-23T02:31:55;1.70;;;1.30;;
69714;SDS011;56981;53.532;49.398;2022-10-23T02:34:22;2.72;;;1.60;;
69714;SDS011;56981;53.532;49.398;2022-10-23T02:36:48;5.22;;;1.48;;
69714;SDS011;56981;53.532;49.398;2022-10-23T02:39:14;2.85;;;1.50;;
69714;SDS011;56981;53.532;49.398;2022-10-23T02:49:26;2.90;;;1.40;;
69714;SDS011;56981;53.532;49.398;2022-10-23T02:52:07;4.55;;;1.40;;
69714;SDS011;56981;53.532;49.398;2022-10-23T03:00:00;3.20;;;1.30;;
69714;SDS011;56981;53.532;49.398;2022-10-23T03:02:39;1.70;;;1.48;;
69714;SDS011;56981;53.532;49.398;2022-10-23T03:05:37;3.20;;;1.40;;
69714;SDS011;56981;53.532;49.398;2022-10-23T03:08:07;1.48;;;1.38;;
69714;SDS011;56981;53.532;49.398;2022-10-23T03:10:35;2.13;;;1.27;;
69714;SDS011;56981;53.532;49.398;2022-10-23T03:13:01;6.55;;;1.58;;
69714;SDS011;56981;53.532;49.398;2022-10-23T03:15:28;2.47;;;1.67;;
69714;SDS011;56981;53.532;49.398;2022-10-23T03:17:54;5.65;;;1.70;;
69714;SDS011;56981;53.532;49.398;2022-10-23T03:20:21;3.55;;;1.70;;
69714;SDS011;56981;53.532;49.398;2022-10-23T03:22:48;2.83;;;1.40;;
69714;SDS011;56981;53.532;49.398;2022-10-23T03:25:14;2.47;;;1.50;;
69714;SDS011;56981;53.532;49.398;2022-10-23T03:27:41;2.00;;;1.42;;
69714;SDS011;56981;53.532;49.398;2022-10-23T03:30:07;3.28;;;1.50;;
69714;SDS011;56981;53.532;49.398;2022-10-23T03:32:34;4.57;;;1.70;;
69714;SDS011;56981;53.532;49.398;2022-10-23T03:35:01;5.20;;;2.10;;
69714;SDS011;56981;53.532;49.398;2022-10-23T03:37:27;5.72;;;1.70;;
69714;SDS011;56981;53.532;49.398;2022-10-23T03:39:53;5.38;;;1.77;;
69714;SDS011;56981;53.532;49.398;2022-10-23T03:42:20;5.93;;;1.92;;
69714;SDS011;56981;53.532;49.398;2022-10-23T03:44:46;5.25;;;2.17;;
69714;SDS011;56981;53.532;49.398;2022-10-23T03:47:13;4.10;;;1.50;;
69714;SDS011;56981;53.532;49.398;2022-10-23T03:49:39;3.28;;;1.67;;
69714;SDS011;56981;53.532;49.398;2022-10-23T03:52:06;5.70;;;1.70;;
69714;SDS011;56981;53.532;49.398;2022-10-23T03:54:33;3.72;;;1.75;;
69714;SDS011;56981;53.532;49.398;2022-10-23T03:57:00;3.47;;;1.67;;
69714;SDS011;56981;53.532;49.398;2022-10-23T03:59:27;5.38;;;2.15;;
69714;SDS011;56981;53.532;49.398;2022-10-23T04:01:53;7.10;;;2.40;;
69714;SDS011;56981;53.532;49.398;2022-10-23T04:04:20;7.43;;;3.53;;
69714;SDS011;56981;53.532;49.398;2022-10-23T04:06:46;10.07;;;2.35;;
69714;SDS011;56981;53.532;49.398;2022-10-23T04:09:13;7.32;;;2.35;;
69714;SDS011;56981;53.532;49.398;2022-10-23T04:11:39;7.85;;;2.55;;
69714;SDS011;56981;53.532;49.398;2022-10-23T04:14:06;8.00;;;2.67;;
69714;SDS011;56981;53.532;49.398;2022-10-23T04:16:32;6.13;;;2.20;;
69714;SDS011;56981;53.532;49.398;2022-10-23T04:18:58;9.57;;;4.10;;
69714;SDS011;56981;53.532;49.398;2022-10-23T04:21:25;7.80;;;3.25;;
69714;SDS011;56981;53.532;49.398;2022-10-23T04:23:51;4.03;;;2.15;;
69714;SDS011;56981;53.532;49.398;2022-10-23T04:26:17;5.00;;;2.65;;
69714;SDS011;56981;53.532;49.398;2022-10-23T04:28:44;5.72;;;1.90;;
69714;SDS011;56981;53.532;49.398;2022-10-23T04:31:10;4.53;;;1.65;;
69714;SDS011;56981;53.532;49.398;2022-10-23T04:33:37;2.00;;;1.60;;
69714;SDS011;56981;53.532;49.398;2022-10-23T04:36:04;2.83;;;1.80;;
69714;SDS011;56981;53.532;49.398;2022-10-23T04:38:31;5.47;;;2.33;;
69714;SDS011;56981;53.532;49.398;2022-10-23T04:40:57;3.20;;;1.83;;
69714;SDS011;56981;53.532;49.398;2022-10-23T04:43:24;4.30;;;2.05;;
69714;SDS011;56981;53.532;49.398;2022-10-23T04:45:50;4.68;;;2.10;;
69714;SDS011;56981;53.532;49.398;2022-10-23T04:48:17;2.78;;;1.60;;
69714;SDS011;56981;53.532;49.398;2022-10-23T04:50:43;3.53;;;1.75;;
69714;SDS011;56981;53.532;49.398;2022-10-23T04:53:18;3.28;;;1.95;;
69714;SDS011;56981;53.532;49.398;2022-10-23T04:55:49;3.20;;;1.65;;
69714;SDS011;56981;53.532;49.398;2022-10-23T04:58:17;2.65;;;1.83;;
69714;SDS011;56981;53.532;49.398;2022-10-23T05:00:44;3.95;;;1.98;;
69714;SDS011;56981;53.532;49.398;2022-10-23T05:03:11;2.58;;;1.42;;
69714;SDS011;56981;53.532;49.398;2022-10-23T05:05:37;7.40;;;3.72;;
69714;SDS011;56981;53.532;49.398;2022-10-23T05:08:04;3.70;;;2.15;;
69714;SDS011;56981;53.532;49.398;2022-10-23T05:10:30;2.28;;;1.63;;
69714;SDS011;56981;53.532;49.398;2022-10-23T05:12:57;3.80;;;1.95;;
69714;SDS011;56981;53.532;49.398;2022-10-23T05:15:23;4.80;;;2.47;;
69714;SDS011;56981;53.532;49.398;2022-10-23T05:17:50;2.03;;;1.60;;
69714;SDS011;56981;53.532;49.398;2022-10-23T05:20:31;2.80;;;1.80;;
69714;SDS011;56981;53.532;49.398;2022-10-23T05:23:00;3.33;;;2.10;;
69714;SDS011;56981;53.532;49.398;2022-10-23T05:25:27;4.50;;;2.13;;
69714;SDS011;56981;53.532;49.398;2022-10-23T05:27:55;3.88;;;2.30;;
69714;SDS011;56981;53.532;49.398;2022-10-23T05:30:22;2.85;;;1.58;;
69714;SDS011;56981;53.532;49.398;2022-10-23T05:32:48;4.85;;;1.73;;
69714;SDS011;56981;53.532;49.398;2022-10-23T05:35:16;5.72;;;2.10;;
69714;SDS011;56981;53.532;49.398;2022-10-23T05:37:46;4.20;;;2.28;;
69714;SDS011;56981;53.532;49.398;2022-10-23T05:40:15;4.53;;;2.03;;
69714;SDS011;56981;53.532;49.398;2022-10-23T05:42:42;5.38;;;1.98;;
69714;SDS011;56981;53.532;49.398;2022-10-23T05:45:08;3.72;;;2.22;;
69714;SDS011;56981;53.532;49.398;2022-10-23T05:47:35;2.65;;;1.60;;
69714;SDS011;56981;53.532;49.398;2022-10-23T05:50:02;6.10;;;2.55;;
69714;SDS011;56981;53.532;49.398;2022-10-23T05:52:28;4.78;;;1.90;;
69714;SDS011;56981;53.532;49.398;2022-10-23T05:54:55;3.45;;;2.45;;
69714;SDS011;56981;53.532;49.398;2022-10-23T05:57:21;8.85;;;2.90;;
69714;SDS011;56981;53.532;49.398;2022-10-23T05:59:48;5.97;;;2.47;;
69714;SDS011;56981;53.532;49.398;2022-10-23T06:02:14;7.88;;;2.20;;
69714;SDS011;56981;53.532;49.398;2022-10-23T06:04:40;5.18;;;2.60;;
69714;SDS011;56981;53.532;49.398;2022-10-23T06:07:06;4.65;;;2.00;;
69714;SDS011;56981;53.532;49.398;2022-10-23T06:09:33;5.70;;;2.53;;
69714;SDS011;56981;53.532;49.398;2022-10-23T06:12:00;6.93;;;3.00;;
69714;SDS011;56981;53.532;49.398;2022-10-23T06:14:27;4.85;;;2.58;;
69714;SDS011;56981;53.532;49.398;2022-10-23T06:16:53;4.75;;;2.30;;
69714;SDS011;56981;53.532;49.398;2022-10-23T06:19:20;5.55;;;2.42;;
69714;SDS011;56981;53.532;49.398;2022-10-23T06:21:49;5.80;;;2.92;;
69714;SDS011;56981;53.532;49.398;2022-10-23T06:24:16;5.32;;;2.65;;
69714;SDS011;56981;53.532;49.398;2022-10-23T06:26:42;4.32;;;1.63;;
69714;SDS011;56981;53.532;49.398;2022-10-23T06:29:09;9.10;;;2.60;;
69714;SDS011;56981;53.532;49.398;2022-10-23T06:31:36;9.90;;;2.75;;
69714;SDS011;56981;53.532;49.398;2022-10-23T06:34:02;8.73;;;3.20;;
69714;SDS011;56981;53.532;49.398;2022-10-23T06:36:29;9.23;;;2.92;;
69714;SDS011;56981;53.532;49.398;2022-10-23T06:39:02;6.22;;;2.58;;
69714;SDS011;56981;53.532;49.398;2022-10-23T06:41:29;10.90;;;2.72;;
69714;SDS011;56981;53.532;49.398;2022-10-23T06:43:55;4.18;;;2.40;;
69714;SDS011;56981;53.532;49.398;2022-10-23T06:46:22;4.30;;;1.85;;
69714;SDS011;56981;53.532;49.398;2022-10-23T06:48:49;3.20;;;1.92;;
69714;SDS011;56981;53.532;49.398;2022-10-23T06:51:16;5.28;;;2.47;;
69714;SDS011;56981;53.532;49.398;2022-10-23T06:53:43;5.45;;;2.03;;
69714;SDS011;56981;53.532;49.398;2022-10-23T06:56:10;4.18;;;2.05;;
69714;SDS011;56981;53.532;49.398;2022-10-23T06:58:40;5.82;;;2.45;;
69714;SDS011;56981;53.532;49.398;2022-10-23T07:01:08;2.83;;;1.90;;
69714;SDS011;56981;53.532;49.398;2022-10-23T07:03:37;3.53;;;1.80;;
69714;SDS011;56981;53.532;49.398;2022-10-23T07:06:07;3.28;;;1.83;;
69714;SDS011;56981;53.532;49.398;2022-10-23T07:08:34;4.55;;;2.42;;
69714;SDS011;56981;53.532;49.398;2022-10-23T07:11:02;4.50;;;1.95;;
69714;SDS011;56981;53.532;49.398;2022-10-23T07:13:30;4.30;;;2.10;;
69714;SDS011;56981;53.532;49.398;2022-10-23T07:15:58;4.82;;;1.90;;
69714;SDS011;56981;53.532;49.398;2022-10-23T07:18:24;3.30;;;1.85;;
69714;SDS011;56981;53.532;49.398;2022-10-23T07:20:56;3.35;;;2.17;;
69714;SDS011;56981;53.532;49.398;2022-10-23T07:23:23;6.82;;;2.15;;
69714;SDS011;56981;53.532;49.398;2022-10-23T07:25:49;3.55;;;1.55;;
69714;SDS011;56981;53.532;49.398;2022-10-23T07:28:15;1.85;;;1.60;;
69714;SDS011;56981;53.532;49.398;2022-10-23T07:30:42;3.53;;;1.67;;
69714;SDS011;56981;53.532;49.398;2022-10-23T07:33:08;6.53;;;2.10;;
69714;SDS011;56981;53.532;49.398;2022-10-23T07:35:40;3.65;;;1.27;;
69714;SDS011;56981;53.532;49.398;2022-10-23T07:38:06;4.78;;;2.03;;
69714;SDS011;56981;53.532;49.398;2022-10-23T07:40:33;3.63;;;1.50;;
69714;SDS011;56981;53.532;49.398;2022-10-23T07:42:59;7.43;;;2.80;;
69714;SDS011;56981;53.532;49.398;2022-10-23T07:45:26;5.88;;;2.78;;
69714;SDS011;56981;53.532;49.398;2022-10-23T07:47:52;6.88;;;3.35;;
69714;SDS011;56981;53.532;49.398;2022-10-23T07:50:19;8.15;;;3.10;;
69714;SDS011;56981;53.532;49.398;2022-10-23T07:52:45;6.47;;;2.97;;
69714;SDS011;56981;53.532;49.398;2022-10-23T07:55:12;6.07;;;2.38;;
69714;SDS011;56981;53.532;49.398;2022-10-23T07:57:42;7.00;;;2.58;;
69714;SDS011;56981;53.532;49.398;2022-10-23T08:00:09;5.43;;;2.83;;
69714;SDS011;56981;53.532;49.398;2022-10-23T08:02:39;5.13;;;2.25;;
69714;SDS011;56981;53.532;49.398;2022-10-23T08:05:10;3.10;;;2.28;;
69714;SDS011;56981;53.532;49.398;2022-10-23T08:07:39;4.70;;;2.20;;
69714;SDS011;56981;53.532;49.398;2022-10-23T08:10:07;3.25;;;2.00;;
69714;SDS011;56981;53.532;49.398;2022-10-23T08:12:34;4.88;;;1.83;;
69714;SDS011;56981;53.532;49.398;2022-10-23T08:15:05;8.73;;;3.65;;
69714;SDS011;56981;53.532;49.398;2022-10-23T08:17:32;6.25;;;3.22;;
69714;SDS011;56981;53.532;49.398;2022-10-23T08:19:59;4.40;;;2.40;;
69714;SDS011;56981;53.532;49.398;2022-10-23T08:22:25;7.55;;;3.20;;
69714;SDS011;56981;53.532;49.398;2022-10-23T08:24:53;5.90;;;2.70;;
69714;SDS011;56981;53.532;49.398;2022-10-23T08:27:19;7.78;;;2.70;;
69714;SDS011;56981;53.532;49.398;2022-10-23T08:29:46;5.15;;;2.60;;
69714;SDS011;56981;53.532;49.398;2022-10-23T08:32:13;5.25;;;2.70;;
69714;SDS011;56981;53.532;49.398;2022-10-23T08:34:40;3.08;;;2.60;;
69714;SDS011;56981;53.532;49.398;2022-10-23T08:37:07;5.22;;;2.15;;
69714;SDS011;56981;53.532;49.398;2022-10-23T08:39:35;4.85;;;1.95;;
69714;SDS011;56981;53.532;49.398;2022-10-23T08:42:01;6.10;;;2.08;;
69714;SDS011;56981;53.532;49.398;2022-10-23T08:47:05;10.75;;;2.35;;
69714;SDS011;56981;53.532;49.398;2022-10-23T08:52:11;7.22;;;2.28;;
69714;SDS011;56981;53.532;49.398;2022-10-23T08:57:09;7.22;;;1.95;;
69714;SDS011;56981;53.532;49.398;2022-10-23T08:59:45;3.13;;;1.98;;
69714;SDS011;56981;53.532;49.398;2022-10-23T09:04:46;14.98;;;2.80;;
69714;SDS011;56981;53.532;49.398;2022-10-23T09:07:20;5.90;;;2.60;;
69714;SDS011;56981;53.532;49.398;2022-10-23T09:18:51;8.13;;;3.42;;
69714;SDS011;56981;53.532;49.398;2022-10-23T09:21:19;7.47;;;3.08;;
69714;SDS011;56981;53.532;49.398;2022-10-23T09:23:48;2.85;;;1.50;;
69714;SDS011;56981;53.532;49.398;2022-10-23T09:26:15;11.93;;;3.42;;
69714;SDS011;56981;53.532;49.398;2022-10-23T09:28:47;7.25;;;2.90;;
69714;SDS011;56981;53.532;49.398;2022-10-23T09:31:18;5.15;;;2.72;;
69714;SDS011;56981;53.532;49.398;2022-10-23T09:33:58;3.67;;;2.33;;
69714;SDS011;56981;53.532;49.398;2022-10-23T09:36:26;4.50;;;2.13;;
69714;SDS011;56981;53.532;49.398;2022-10-23T09:38:58;5.65;;;2.70;;
69714;SDS011;56981;53.532;49.398;2022-10-23T09:44:27;19.80;;;3.20;;
69714;SDS011;56981;53.532;49.398;2022-10-23T09:46:49;4.45;;;2.13;;
69714;SDS011;56981;53.532;49.398;2022-10-23T09:52:02;3.92;;;1.80;;
69714;SDS011;56981;53.532;49.398;2022-10-23T09:54:48;11.82;;;2.50;;
69714;SDS011;56981;53.532;49.398;2022-10-23T09:57:23;20.23;;;3.35;;
69714;SDS011;56981;53.532;49.398;2022-10-23T10:02:55;6.65;;;2.83;;
69714;SDS011;56981;53.532;49.398;2022-10-23T10:05:30;6.05;;;2.15;;
69714;SDS011;56981;53.532;49.398;2022-10-23T10:10:46;4.97;;;2.70;;
69714;SDS011;56981;53.532;49.398;2022-10-23T10:16:06;6.00;;;3.05;;
69714;SDS011;56981;53.532;49.398;2022-10-23T10:19:00;5.93;;;3.00;;
69714;SDS011;56981;53.532;49.398;2022-10-23T10:21:39;7.60;;;3.13;;
69714;SDS011;56981;53.532;49.398;2022-10-23T10:24:17;5.88;;;2.90;;
69714;SDS011;56981;53.532;49.398;2022-10-23T10:26:55;6.57;;;3.45;;
69714;SDS011;56981;53.532;49.398;2022-10-23T10:43:57;7.32;;;3.10;;
69714;SDS011;56981;53.532;49.398;2022-10-23T10:48:59;5.50;;;3.05;;
69714;SDS011;56981;53.532;49.398;2022-10-23T10:51:52;5.53;;;2.90;;
69714;SDS011;56981;53.532;49.398;2022-10-23T10:56:58;7.68;;;3.17;;
69714;SDS011;56981;53.532;49.398;2022-10-23T10:59:28;5.80;;;3.10;;
69714;SDS011;56981;53.532;49.398;2022-10-23T11:02:01;8.63;;;3.03;;
69714;SDS011;56981;53.532;49.398;2022-10-23T11:04:42;6.65;;;3.53;;
69714;SDS011;56981;53.532;49.398;2022-10-23T11:07:11;7.18;;;3.40;;
69714;SDS011;56981;53.532;49.398;2022-10-23T11:09:42;9.75;;;3.40;;
69714;SDS011;56981;53.532;49.398;2022-10-23T11:12:30;11.75;;;3.17;;
69714;SDS011;56981;53.532;49.398;2022-10-23T11:14:56;9.13;;;3.97;;
69714;SDS011;56981;53.532;49.398;2022-10-23T11:17:26;7.50;;;3.22;;
69714;SDS011;56981;53.532;49.398;2022-10-23T11:20:07;13.60;;;4.57;;
69714;SDS011;56981;53.532;49.398;2022-10-23T11:22:49;9.25;;;3.58;;
69714;SDS011;56981;53.532;49.398;2022-10-23T11:28:39;9.55;;;4.00;;
69714;SDS011;56981;53.532;49.398;2022-10-23T11:34:36;8.15;;;3.55;;
69714;SDS011;56981;53.532;49.398;2022-10-23T11:37:19;8.82;;;3.40;;
69714;SDS011;56981;53.532;49.398;2022-10-23T11:42:33;11.75;;;4.57;;
69714;SDS011;56981;53.532;49.398;2022-10-23T11:51:04;10.32;;;4.25;;
69714;SDS011;56981;53.532;49.398;2022-10-23T11:58:40;6.60;;;4.03;;
69714;SDS011;56981;53.532;49.398;2022-10-23T12:01:22;7.65;;;3.90;;
69714;SDS011;56981;53.532;49.398;2022-10-23T12:06:40;5.68;;;2.50;;
69714;SDS011;56981;53.532;49.398;2022-10-23T12:14:40;5.55;;;3.45;;
69714;SDS011;56981;53.532;49.398;2022-10-23T12:19:50;4.00;;;2.53;;
69714;SDS011;56981;53.532;49.398;2022-10-23T12:22:23;9.82;;;3.15;;
69714;SDS011;56981;53.532;49.398;2022-10-23T12:25:02;8.95;;;3.95;;
69714;SDS011;56981;53.532;49.398;2022-10-23T12:33:41;8.05;;;3.28;;
69714;SDS011;56981;53.532;49.398;2022-10-23T12:39:29;5.07;;;2.92;;
69714;SDS011;56981;53.532;49.398;2022-10-23T12:42:04;8.38;;;3.90;;
69714;SDS011;56981;53.532;49.398;2022-10-23T12:44:40;6.50;;;4.03;;
69714;SDS011;56981;53.532;49.398;2022-10-23T12:47:10;9.50;;;4.50;;
69714;SDS011;56981;53.532;49.398;2022-10-23T12:49:47;6.25;;;4.70;;
69714;SDS011;56981;53.532;49.398;2022-10-23T12:52:15;6.82;;;4.13;;
69714;SDS011;56981;53.532;49.398;2022-10-23T12:54:43;10.48;;;4.05;;
69714;SDS011;56981;53.532;49.398;2022-10-23T12:57:18;11.07;;;4.90;;
69714;SDS011;56981;53.532;49.398;2022-10-23T12:59:52;9.93;;;4.63;;
69714;SDS011;56981;53.532;49.398;2022-10-23T13:02:28;8.60;;;3.55;;
69714;SDS011;56981;53.532;49.398;2022-10-23T13:04:57;11.95;;;4.53;;
69714;SDS011;56981;53.532;49.398;2022-10-23T13:07:27;7.70;;;4.63;;
69714;SDS011;56981;53.532;49.398;2022-10-23T13:09:56;10.85;;;4.60;;
69714;SDS011;56981;53.532;49.398;2022-10-23T13:12:28;9.38;;;4.88;;
69714;SDS011;56981;53.532;49.398;2022-10-23T13:15:01;9.02;;;5.28;;
69714;SDS011;56981;53.532;49.398;2022-10-23T13:23:00;9.18;;;4.20;;
69714;SDS011;56981;53.532;49.398;2022-10-23T13:25:35;9.48;;;4.65;;
69714;SDS011;56981;53.532;49.398;2022-10-23T13:30:34;11.65;;;5.70;;
69714;SDS011;56981;53.532;49.398;2022-10-23T13:36:01;8.98;;;5.53;;
69714;SDS011;56981;53.532;49.398;2022-10-23T13:38:40;11.80;;;4.65;;
69714;SDS011;56981;53.532;49.398;2022-10-23T13:41:11;11.25;;;5.50;;
69714;SDS011;56981;53.532;49.398;2022-10-23T13:43:40;16.50;;;5.50;;
69714;SDS011;56981;53.532;49.398;2022-10-23T13:46:14;10.02;;;4.88;;
69714;SDS011;56981;53.532;49.398;2022-10-23T13:48:42;8.88;;;4.55;;
69714;SDS011;56981;53.532;49.398;2022-10-23T13:53:39;8.43;;;4.90;;
69714;SDS011;56981;53.532;49.398;2022-10-23T13:56:08;10.73;;;4.85;;
69714;SDS011;56981;53.532;49.398;2022-10-23T14:01:22;8.57;;;4.15;;
69714;SDS011;56981;53.532;49.398;2022-10-23T14:03:53;7.75;;;4.45;;
69714;SDS011;56981;53.532;49.398;2022-10-23T14:06:20;8.27;;;4.50;;
69714;SDS011;56981;53.532;49.398;2022-10-23T14:08:46;12.77;;;5.07;;
69714;SDS011;56981;53.532;49.398;2022-10-23T14:11:14;12.30;;;5.22;;
69714;SDS011;56981;53.532;49.398;2022-10-23T14:13:44;10.95;;;5.25;;
69714;SDS011;56981;53.532;49.398;2022-10-23T14:16:20;10.48;;;5.93;;
69714;SDS011;56981;53.532;49.398;2022-10-23T14:18:47;11.65;;;5.40;;
69714;SDS011;56981;53.532;49.398;2022-10-23T14:21:14;16.00;;;5.63;;
69714;SDS011;56981;53.532;49.398;2022-10-23T14:23:42;11.70;;;5.57;;
69714;SDS011;56981;53.532;49.398;2022-10-23T14:26:10;9.32;;;5.13;;
69714;SDS011;56981;53.532;49.398;2022-10-23T14:28:38;10.98;;;5.75;;
69714;SDS011;56981;53.532;49.398;2022-10-23T14:31:09;12.05;;;5.55;;
69714;SDS011;56981;53.532;49.398;2022-10-23T14:33:40;14.48;;;6.22;;
69714;SDS011;56981;53.532;49.398;2022-10-23T14:36:07;9.63;;;4.82;;
69714;SDS011;56981;53.532;49.398;2022-10-23T14:38:33;13.23;;;5.35;;
69714;SDS011;56981;53.532;49.398;2022-10-23T14:41:00;11.02;;;5.18;;
69714;SDS011;56981;53.532;49.398;2022-10-23T14:43:27;10.70;;;5.38;;
69714;SDS011;56981;53.532;49.398;2022-10-23T14:45:53;11.63;;;5.47;;
69714;SDS011;56981;53.532;49.398;2022-10-23T14:48:20;15.38;;;6.20;;
69714;SDS011;56981;53.532;49.398;2022-10-23T14:50:47;14.23;;;7.40;;
69714;SDS011;56981;53.532;49.398;2022-10-23T14:53:16;11.43;;;6.03;;
69714;SDS011;56981;53.532;49.398;2022-10-23T14:55:43;12.88;;;6.43;;
69714;SDS011;56981;53.532;49.398;2022-10-23T14:58:09;12.95;;;6.30;;
69714;SDS011;56981;53.532;49.398;2022-10-23T15:00:35;14.63;;;6.40;;
69714;SDS011;56981;53.532;49.398;2022-10-23T15:03:02;15.30;;;6.60;;
69714;SDS011;56981;53.532;49.398;2022-10-23T15:05:28;11.00;;;5.88;;
69714;SDS011;56981;53.532;49.398;2022-10-23T15:07:54;16.25;;;6.70;;
69714;SDS011;56981;53.532;49.398;2022-10-23T15:10:23;14.07;;;6.55;;
69714;SDS011;56981;53.532;49.398;2022-10-23T15:12:49;18.23;;;7.32;;
69714;SDS011;56981;53.532;49.398;2022-10-23T15:15:15;18.23;;;7.82;;
69714;SDS011;56981;53.532;49.398;2022-10-23T15:17:42;17.48;;;6.72;;
69714;SDS011;56981;53.532;49.398;2022-10-23T15:20:08;17.48;;;7.13;;
69714;SDS011;56981;53.532;49.398;2022-10-23T15:22:35;16.85;;;7.38;;
69714;SDS011;56981;53.532;49.398;2022-10-23T15:25:01;18.58;;;7.28;;
69714;SDS011;56981;53.532;49.398;2022-10-23T15:27:28;16.15;;;7.15;;
69714;SDS011;56981;53.532;49.398;2022-10-23T15:29:54;17.85;;;7.10;;
69714;SDS011;56981;53.532;49.398;2022-10-23T15:32:21;15.70;;;6.68;;
69714;SDS011;56981;53.532;49.398;2022-10-23T15:34:47;15.13;;;7.00;;
69714;SDS011;56981;53.532;49.398;2022-10-23T15:37:14;15.30;;;6.60;;
69714;SDS011;56981;53.532;49.398;2022-10-23T15:39:40;22.67;;;7.38;;
69714;SDS011;56981;53.532;49.398;2022-10-23T15:42:08;15.13;;;7.35;;
69714;SDS011;56981;53.532;49.398;2022-10-23T15:44:35;19.27;;;6.80;;
69714;SDS011;56981;53.532;49.398;2022-10-23T15:47:02;18.88;;;7.82;;
69714;SDS011;56981;53.532;49.398;2022-10-23T15:49:28;14.15;;;6.65;;
69714;SDS011;56981;53.532;49.398;2022-10-23T15:51:55;19.80;;;6.68;;
69714;SDS011;56981;53.532;49.398;2022-10-23T15:54:21;14.73;;;6.68;;
69714;SDS011;56981;53.532;49.398;2022-10-23T15:56:49;18.75;;;8.05;;
69714;SDS011;56981;53.532;49.398;2022-10-23T15:59:21;14.85;;;6.70;;
69714;SDS011;56981;53.532;49.398;2022-10-23T16:01:49;19.30;;;6.43;;
69714;SDS011;56981;53.532;49.398;2022-10-23T16:04:16;15.70;;;7.07;;
69714;SDS011;56981;53.532;49.398;2022-10-23T16:06:43;15.32;;;6.28;;
69714;SDS011;56981;53.532;49.398;2022-10-23T16:09:10;14.85;;;6.60;;
69714;SDS011;56981;53.532;49.398;2022-10-23T16:11:37;15.75;;;6.20;;
69714;SDS011;56981;53.532;49.398;2022-10-23T16:14:07;16.33;;;8.40;;
69714;SDS011;56981;53.532;49.398;2022-10-23T16:16:42;18.90;;;7.18;;
69714;SDS011;56981;53.532;49.398;2022-10-23T16:19:10;19.05;;;6.57;;
69714;SDS011;56981;53.532;49.398;2022-10-23T16:21:37;19.58;;;7.63;;
69714;SDS011;56981;53.532;49.398;2022-10-23T16:24:05;15.63;;;5.93;;
69714;SDS011;56981;53.532;49.398;2022-10-23T16:26:35;15.35;;;6.97;;
69714;SDS011;56981;53.532;49.398;2022-10-23T16:29:04;20.20;;;7.18;;
69714;SDS011;56981;53.532;49.398;2022-10-23T16:31:32;12.38;;;6.07;;
69714;SDS011;56981;53.532;49.398;2022-10-23T16:34:01;16.50;;;7.32;;
69714;SDS011;56981;53.532;49.398;2022-10-23T16:36:30;17.00;;;6.60;;
69714;SDS011;56981;53.532;49.398;2022-10-23T16:38:57;12.98;;;6.07;;
69714;SDS011;56981;53.532;49.398;2022-10-23T16:41:23;16.67;;;7.78;;
69714;SDS011;56981;53.532;49.398;2022-10-23T16:43:50;17.88;;;6.50;;
69714;SDS011;56981;53.532;49.398;2022-10-23T16:46:17;16.75;;;7.13;;
69714;SDS011;56981;53.532;49.398;2022-10-23T16:48:45;16.73;;;6.85;;
69714;SDS011;56981;53.532;49.398;2022-10-23T16:51:14;18.02;;;7.32;;
69714;SDS011;56981;53.532;49.398;2022-10-23T16:53:46;17.45;;;7.03;;
69714;SDS011;56981;53.532;49.398;2022-10-23T16:56:13;16.67;;;7.10;;
69714;SDS011;56981;53.532;49.398;2022-10-23T16:58:41;16.85;;;7.30;;
69714;SDS011;56981;53.532;49.398;2022-10-23T17:01:10;18.55;;;7.70;;
69714;SDS011;56981;53.532;49.398;2022-10-23T17:03:42;14.15;;;6.30;;